sensor_id;sensor_type;location;lat;lon;timestamp;temperature;humidity
10451;DHT22;5273;51.290;6.918;2023-10-19T00:01:55;11.00;99.90
10451;DHT22;5273;51.290;6.918;2023-10-19T00:04:23;11.00;99.90
10451;DHT22;5273;51.290;6.918;2023-10-19T00:06:50;11.10;99.90
10451;DHT22;5273;51.290;6.918;2023-10-19T00:09:15;11.10;99.90
10451;DHT22;5273;51.290;6.918;2023-10-19T00:11:42;11.10;99.90
10451;DHT22;5273;51.290;6.918;2023-10-19T00:14:08;11.20;99.90
10451;DHT22;5273;51.290;6.918;2023-10-19T00:16:42;11.20;99.90
10451;DHT22;5273;51.290;6.918;2023-10-19T00:19:10;11.20;99.90
10451;DHT22;5273;51.290;6.918;2023-10-19T00:21:39;11.50;99.90
10451;DHT22;5273;51.290;6.918;2023-10-19T00:24:17;11.80;99.90
10451;DHT22;5273;51.290;6.918;2023-10-19T00:26:45;11.40;99.90
10451;DHT22;5273;51.290;6.918;2023-10-19T00:29:13;11.40;99.90
10451;DHT22;5273;51.290;6.918;2023-10-19T00:31:56;11.40;99.90
10451;DHT22;5273;51.290;6.918;2023-10-19T00:34:23;11.40;99.90
10451;DHT22;5273;51.290;6.918;2023-10-19T00:36:52;11.60;99.90
10451;DHT22;5273;51.290;6.918;2023-10-19T00:39:21;11.50;99.90
10451;DHT22;5273;51.290;6.918;2023-10-19T00:41:48;11.50;99.90
10451;DHT22;5273;51.290;6.918;2023-10-19T00:44:15;12.90;99.90
10451;DHT22;5273;51.290;6.918;2023-10-19T00:46:50;11.60;99.90
10451;DHT22;5273;51.290;6.918;2023-10-19T00:49:28;11.50;99.90
10451;DHT22;5273;51.290;6.918;2023-10-19T00:51:58;11.50;99.90
10451;DHT22;5273;51.290;6.918;2023-10-19T00:54:31;11.60;99.90
10451;DHT22;5273;51.290;6.918;2023-10-19T00:57:02;11.60;99.90
10451;DHT22;5273;51.290;6.918;2023-10-19T00:59:34;11.60;99.90
10451;DHT22;5273;51.290;6.918;2023-10-19T01:02:04;11.60;99.90
10451;DHT22;5273;51.290;6.918;2023-10-19T01:04:43;11.60;99.90
10451;DHT22;5273;51.290;6.918;2023-10-19T01:07:13;11.70;99.90
10451;DHT22;5273;51.290;6.918;2023-10-19T01:09:47;11.70;99.90
10451;DHT22;5273;51.290;6.918;2023-10-19T01:12:18;11.70;99.90
10451;DHT22;5273;51.290;6.918;2023-10-19T01:15:08;11.70;99.90
10451;DHT22;5273;51.290;6.918;2023-10-19T01:17:38;11.70;99.90
10451;DHT22;5273;51.290;6.918;2023-10-19T01:20:07;11.80;99.90
10451;DHT22;5273;51.290;6.918;2023-10-19T01:22:48;11.80;99.90
10451;DHT22;5273;51.290;6.918;2023-10-19T01:25:18;11.80;99.90
10451;DHT22;5273;51.290;6.918;2023-10-19T01:27:49;11.80;99.90
10451;DHT22;5273;51.290;6.918;2023-10-19T01:30:23;11.80;99.90
10451;DHT22;5273;51.290;6.918;2023-10-19T01:32:49;11.80;99.90
10451;DHT22;5273;51.290;6.918;2023-10-19T01:35:17;12.10;99.90
10451;DHT22;5273;51.290;6.918;2023-10-19T01:37:45;11.80;99.90
10451;DHT22;5273;51.290;6.918;2023-10-19T01:40:11;11.90;99.90
10451;DHT22;5273;51.290;6.918;2023-10-19T01:42:45;11.90;99.90
10451;DHT22;5273;51.290;6.918;2023-10-19T01:45:11;11.90;99.90
10451;DHT22;5273;51.290;6.918;2023-10-19T01:47:38;11.90;99.90
10451;DHT22;5273;51.290;6.918;2023-10-19T01:50:07;12.00;99.90
10451;DHT22;5273;51.290;6.918;2023-10-19T01:52:46;12.00;99.90
10451;DHT22;5273;51.290;6.918;2023-10-19T01:55:13;12.10;99.90
10451;DHT22;5273;51.290;6.918;2023-10-19T01:57:46;12.10;99.90
10451;DHT22;5273;51.290;6.918;2023-10-19T02:00:12;12.10;99.90
10451;DHT22;5273;51.290;6.918;2023-10-19T02:02:48;12.20;99.90
10451;DHT22;5273;51.290;6.918;2023-10-19T02:05:14;12.20;99.90
10451;DHT22;5273;51.290;6.918;2023-10-19T02:07:49;12.20;99.90
10451;DHT22;5273;51.290;6.918;2023-10-19T02:10:14;12.30;99.90
10451;DHT22;5273;51.290;6.918;2023-10-19T02:12:41;12.30;99.90
10451;DHT22;5273;51.290;6.918;2023-10-19T02:15:12;12.80;99.90
10451;DHT22;5273;51.290;6.918;2023-10-19T02:17:39;12.30;99.90
10451;DHT22;5273;51.290;6.918;2023-10-19T02:20:08;12.40;99.90
10451;DHT22;5273;51.290;6.918;2023-10-19T02:22:51;12.40;99.90
10451;DHT22;5273;51.290;6.918;2023-10-19T02:25:18;12.40;99.90
10451;DHT22;5273;51.290;6.918;2023-10-19T02:27:46;12.40;99.90
10451;DHT22;5273;51.290;6.918;2023-10-19T02:30:12;12.80;99.90
10451;DHT22;5273;51.290;6.918;2023-10-19T02:32:39;12.50;99.90
10451;DHT22;5273;51.290;6.918;2023-10-19T02:35:08;12.50;99.90
10451;DHT22;5273;51.290;6.918;2023-10-19T02:37:35;12.50;99.90
10451;DHT22;5273;51.290;6.918;2023-10-19T02:40:02;12.50;99.90
10451;DHT22;5273;51.290;6.918;2023-10-19T02:42:37;12.60;99.90
10451;DHT22;5273;51.290;6.918;2023-10-19T02:45:04;12.50;99.90
10451;DHT22;5273;51.290;6.918;2023-10-19T02:47:31;12.60;99.90
10451;DHT22;5273;51.290;6.918;2023-10-19T02:49:57;12.60;99.90
10451;DHT22;5273;51.290;6.918;2023-10-19T02:52:24;12.60;99.90
10451;DHT22;5273;51.290;6.918;2023-10-19T02:54:50;12.60;99.90
10451;DHT22;5273;51.290;6.918;2023-10-19T02:57:18;12.70;99.90
10451;DHT22;5273;51.290;6.918;2023-10-19T02:59:44;12.70;99.90
10451;DHT22;5273;51.290;6.918;2023-10-19T03:02:12;12.70;99.90
10451;DHT22;5273;51.290;6.918;2023-10-19T03:04:42;13.50;99.90
10451;DHT22;5273;51.290;6.918;2023-10-19T03:07:11;12.70;99.90
10451;DHT22;5273;51.290;6.918;2023-10-19T03:09:37;12.70;99.90
10451;DHT22;5273;51.290;6.918;2023-10-19T03:12:06;12.70;99.90
10451;DHT22;5273;51.290;6.918;2023-10-19T03:14:37;12.80;99.90
10451;DHT22;5273;51.290;6.918;2023-10-19T03:17:04;13.10;99.90
10451;DHT22;5273;51.290;6.918;2023-10-19T03:19:30;12.70;99.90
10451;DHT22;5273;51.290;6.918;2023-10-19T03:21:57;12.70;99.90
10451;DHT22;5273;51.290;6.918;2023-10-19T03:24:26;12.70;99.90
10451;DHT22;5273;51.290;6.918;2023-10-19T03:27:02;12.70;99.90
10451;DHT22;5273;51.290;6.918;2023-10-19T03:29:34;12.80;99.90
10451;DHT22;5273;51.290;6.918;2023-10-19T03:32:05;12.80;99.90
10451;DHT22;5273;51.290;6.918;2023-10-19T03:34:33;12.80;99.90
10451;DHT22;5273;51.290;6.918;2023-10-19T03:37:00;12.80;99.90
10451;DHT22;5273;51.290;6.918;2023-10-19T03:39:31;12.80;99.90
10451;DHT22;5273;51.290;6.918;2023-10-19T03:41:59;12.80;99.90
10451;DHT22;5273;51.290;6.918;2023-10-19T03:44:26;13.70;99.90
10451;DHT22;5273;51.290;6.918;2023-10-19T03:47:06;12.80;99.90
10451;DHT22;5273;51.290;6.918;2023-10-19T03:49:37;13.00;99.90
10451;DHT22;5273;51.290;6.918;2023-10-19T03:52:04;13.40;99.90
10451;DHT22;5273;51.290;6.918;2023-10-19T03:54:58;12.80;99.90
10451;DHT22;5273;51.290;6.918;2023-10-19T03:57:25;12.80;99.90
10451;DHT22;5273;51.290;6.918;2023-10-19T03:59:55;12.90;99.90
10451;DHT22;5273;51.290;6.918;2023-10-19T04:02:22;13.10;99.90
10451;DHT22;5273;51.290;6.918;2023-10-19T04:04:50;12.90;99.90
10451;DHT22;5273;51.290;6.918;2023-10-19T04:07:18;12.90;99.90
10451;DHT22;5273;51.290;6.918;2023-10-19T04:09:47;13.10;99.90
10451;DHT22;5273;51.290;6.918;2023-10-19T04:12:37;12.90;99.90
10451;DHT22;5273;51.290;6.918;2023-10-19T04:15:06;12.90;99.90
10451;DHT22;5273;51.290;6.918;2023-10-19T04:17:40;12.90;99.90
10451;DHT22;5273;51.290;6.918;2023-10-19T04:20:09;12.90;99.90
10451;DHT22;5273;51.290;6.918;2023-10-19T04:22:52;12.90;99.90
10451;DHT22;5273;51.290;6.918;2023-10-19T04:25:20;12.90;99.90
10451;DHT22;5273;51.290;6.918;2023-10-19T04:27:52;12.90;99.90
10451;DHT22;5273;51.290;6.918;2023-10-19T04:30:19;13.50;99.90
10451;DHT22;5273;51.290;6.918;2023-10-19T04:32:49;13.50;99.90
10451;DHT22;5273;51.290;6.918;2023-10-19T04:35:16;12.90;99.90
10451;DHT22;5273;51.290;6.918;2023-10-19T04:37:48;12.90;99.90
10451;DHT22;5273;51.290;6.918;2023-10-19T04:40:15;12.90;99.90
10451;DHT22;5273;51.290;6.918;2023-10-19T04:42:42;12.90;99.90
10451;DHT22;5273;51.290;6.918;2023-10-19T04:45:11;12.90;99.90
10451;DHT22;5273;51.290;6.918;2023-10-19T04:47:38;13.00;99.90
10451;DHT22;5273;51.290;6.918;2023-10-19T04:50:06;13.60;99.90
10451;DHT22;5273;51.290;6.918;2023-10-19T04:52:33;13.00;99.90
10451;DHT22;5273;51.290;6.918;2023-10-19T04:55:02;12.90;99.90
10451;DHT22;5273;51.290;6.918;2023-10-19T04:57:29;12.90;99.90
10451;DHT22;5273;51.290;6.918;2023-10-19T04:59:56;12.90;99.90
10451;DHT22;5273;51.290;6.918;2023-10-19T05:02:24;12.90;99.90
10451;DHT22;5273;51.290;6.918;2023-10-19T05:04:51;12.90;99.90
10451;DHT22;5273;51.290;6.918;2023-10-19T05:07:18;12.90;99.90
10451;DHT22;5273;51.290;6.918;2023-10-19T05:09:46;12.90;99.90
10451;DHT22;5273;51.290;6.918;2023-10-19T05:12:14;12.90;99.90
10451;DHT22;5273;51.290;6.918;2023-10-19T05:14:41;12.90;99.90
10451;DHT22;5273;51.290;6.918;2023-10-19T05:17:09;12.90;99.90
10451;DHT22;5273;51.290;6.918;2023-10-19T05:19:39;12.90;99.90
10451;DHT22;5273;51.290;6.918;2023-10-19T05:22:07;12.90;99.90
10451;DHT22;5273;51.290;6.918;2023-10-19T05:24:35;12.90;99.90
10451;DHT22;5273;51.290;6.918;2023-10-19T05:27:03;13.90;99.90
10451;DHT22;5273;51.290;6.918;2023-10-19T05:29:32;12.90;99.90
10451;DHT22;5273;51.290;6.918;2023-10-19T05:31:59;12.90;99.90
10451;DHT22;5273;51.290;6.918;2023-10-19T05:34:27;12.90;99.90
10451;DHT22;5273;51.290;6.918;2023-10-19T05:36:56;12.90;99.90
10451;DHT22;5273;51.290;6.918;2023-10-19T05:39:24;12.90;99.90
10451;DHT22;5273;51.290;6.918;2023-10-19T05:41:53;13.00;99.90
10451;DHT22;5273;51.290;6.918;2023-10-19T05:44:20;13.00;99.90
10451;DHT22;5273;51.290;6.918;2023-10-19T05:46:50;13.00;99.90
10451;DHT22;5273;51.290;6.918;2023-10-19T05:49:17;13.00;99.90
10451;DHT22;5273;51.290;6.918;2023-10-19T05:51:44;13.00;99.90
10451;DHT22;5273;51.290;6.918;2023-10-19T05:54:12;13.00;99.90
10451;DHT22;5273;51.290;6.918;2023-10-19T05:56:39;13.00;99.90
10451;DHT22;5273;51.290;6.918;2023-10-19T05:59:06;13.00;99.90
10451;DHT22;5273;51.290;6.918;2023-10-19T06:01:33;13.10;99.90
10451;DHT22;5273;51.290;6.918;2023-10-19T06:04:00;13.00;99.90
10451;DHT22;5273;51.290;6.918;2023-10-19T06:06:27;13.00;99.90
10451;DHT22;5273;51.290;6.918;2023-10-19T06:08:54;13.00;99.90
10451;DHT22;5273;51.290;6.918;2023-10-19T06:11:22;13.00;99.90
10451;DHT22;5273;51.290;6.918;2023-10-19T06:13:49;13.00;99.90
10451;DHT22;5273;51.290;6.918;2023-10-19T06:16:17;13.00;99.90
10451;DHT22;5273;51.290;6.918;2023-10-19T06:18:45;13.00;99.90
10451;DHT22;5273;51.290;6.918;2023-10-19T06:21:12;13.10;99.90
10451;DHT22;5273;51.290;6.918;2023-10-19T06:23:44;13.00;99.90
10451;DHT22;5273;51.290;6.918;2023-10-19T06:26:11;13.10;99.90
10451;DHT22;5273;51.290;6.918;2023-10-19T06:28:40;13.00;99.90
10451;DHT22;5273;51.290;6.918;2023-10-19T06:31:07;13.00;99.90
10451;DHT22;5273;51.290;6.918;2023-10-19T06:33:34;13.10;99.90
10451;DHT22;5273;51.290;6.918;2023-10-19T06:36:01;13.10;99.90
10451;DHT22;5273;51.290;6.918;2023-10-19T06:38:29;13.10;99.90
10451;DHT22;5273;51.290;6.918;2023-10-19T06:40:56;13.10;99.90
10451;DHT22;5273;51.290;6.918;2023-10-19T06:43:24;13.30;99.90
10451;DHT22;5273;51.290;6.918;2023-10-19T06:45:55;13.10;99.90
10451;DHT22;5273;51.290;6.918;2023-10-19T06:48:22;13.10;99.90
10451;DHT22;5273;51.290;6.918;2023-10-19T06:50:49;13.10;99.90
10451;DHT22;5273;51.290;6.918;2023-10-19T06:53:16;13.10;99.90
10451;DHT22;5273;51.290;6.918;2023-10-19T06:55:43;13.20;99.90
10451;DHT22;5273;51.290;6.918;2023-10-19T06:58:10;13.10;99.90
10451;DHT22;5273;51.290;6.918;2023-10-19T07:00:37;13.10;99.90
10451;DHT22;5273;51.290;6.918;2023-10-19T07:03:09;13.20;99.90
10451;DHT22;5273;51.290;6.918;2023-10-19T07:05:36;13.20;99.90
10451;DHT22;5273;51.290;6.918;2023-10-19T07:08:04;13.20;99.90
10451;DHT22;5273;51.290;6.918;2023-10-19T07:10:32;13.20;99.90
10451;DHT22;5273;51.290;6.918;2023-10-19T07:13:00;13.20;99.90
10451;DHT22;5273;51.290;6.918;2023-10-19T07:15:27;13.20;99.90
10451;DHT22;5273;51.290;6.918;2023-10-19T07:17:55;13.30;99.90
10451;DHT22;5273;51.290;6.918;2023-10-19T07:20:23;13.30;99.90
10451;DHT22;5273;51.290;6.918;2023-10-19T07:22:54;13.20;99.90
10451;DHT22;5273;51.290;6.918;2023-10-19T07:25:21;13.90;99.90
10451;DHT22;5273;51.290;6.918;2023-10-19T07:27:48;13.30;99.90
10451;DHT22;5273;51.290;6.918;2023-10-19T07:30:16;13.30;99.90
10451;DHT22;5273;51.290;6.918;2023-10-19T07:32:47;13.30;99.90
10451;DHT22;5273;51.290;6.918;2023-10-19T07:35:17;13.30;99.90
10451;DHT22;5273;51.290;6.918;2023-10-19T07:37:45;13.40;99.90
10451;DHT22;5273;51.290;6.918;2023-10-19T07:40:13;13.40;99.90
10451;DHT22;5273;51.290;6.918;2023-10-19T07:42:40;13.40;99.90
10451;DHT22;5273;51.290;6.918;2023-10-19T07:45:08;13.40;99.90
10451;DHT22;5273;51.290;6.918;2023-10-19T07:47:37;13.30;99.90
10451;DHT22;5273;51.290;6.918;2023-10-19T07:50:06;13.50;99.90
10451;DHT22;5273;51.290;6.918;2023-10-19T07:52:37;13.40;99.90
10451;DHT22;5273;51.290;6.918;2023-10-19T07:55:07;13.40;99.90
10451;DHT22;5273;51.290;6.918;2023-10-19T07:57:34;13.50;99.90
10451;DHT22;5273;51.290;6.918;2023-10-19T08:00:02;13.50;99.90
10451;DHT22;5273;51.290;6.918;2023-10-19T08:02:29;13.50;99.90
10451;DHT22;5273;51.290;6.918;2023-10-19T08:04:57;13.60;99.90
10451;DHT22;5273;51.290;6.918;2023-10-19T08:07:24;13.60;99.90
10451;DHT22;5273;51.290;6.918;2023-10-19T08:09:53;13.70;99.90
10451;DHT22;5273;51.290;6.918;2023-10-19T08:12:25;13.70;99.90
10451;DHT22;5273;51.290;6.918;2023-10-19T08:14:52;15.00;99.90
10451;DHT22;5273;51.290;6.918;2023-10-19T08:17:21;13.90;99.90
10451;DHT22;5273;51.290;6.918;2023-10-19T08:19:49;13.90;99.90
10451;DHT22;5273;51.290;6.918;2023-10-19T08:22:16;13.90;99.90
10451;DHT22;5273;51.290;6.918;2023-10-19T08:24:43;14.00;99.90
10451;DHT22;5273;51.290;6.918;2023-10-19T08:27:11;14.10;99.90
10451;DHT22;5273;51.290;6.918;2023-10-19T08:29:39;14.30;99.90
10451;DHT22;5273;51.290;6.918;2023-10-19T08:32:06;14.60;99.90
10451;DHT22;5273;51.290;6.918;2023-10-19T08:34:34;14.80;99.90
10451;DHT22;5273;51.290;6.918;2023-10-19T08:37:02;14.90;99.90
10451;DHT22;5273;51.290;6.918;2023-10-19T08:39:30;14.80;99.90
10451;DHT22;5273;51.290;6.918;2023-10-19T08:42:01;14.90;99.90
10451;DHT22;5273;51.290;6.918;2023-10-19T08:44:29;15.00;99.90
10451;DHT22;5273;51.290;6.918;2023-10-19T08:46:58;15.10;99.90
10451;DHT22;5273;51.290;6.918;2023-10-19T08:49:26;15.30;99.90
10451;DHT22;5273;51.290;6.918;2023-10-19T08:51:54;15.40;99.90
10451;DHT22;5273;51.290;6.918;2023-10-19T08:54:21;15.40;99.90
10451;DHT22;5273;51.290;6.918;2023-10-19T08:56:48;15.40;99.90
10451;DHT22;5273;51.290;6.918;2023-10-19T08:59:15;15.30;99.90
10451;DHT22;5273;51.290;6.918;2023-10-19T09:01:42;15.30;99.90
10451;DHT22;5273;51.290;6.918;2023-10-19T09:04:11;15.20;99.90
10451;DHT22;5273;51.290;6.918;2023-10-19T09:06:39;15.20;99.90
10451;DHT22;5273;51.290;6.918;2023-10-19T09:09:08;15.10;99.90
10451;DHT22;5273;51.290;6.918;2023-10-19T09:11:39;15.10;99.90
10451;DHT22;5273;51.290;6.918;2023-10-19T09:14:06;15.10;99.90
10451;DHT22;5273;51.290;6.918;2023-10-19T09:16:32;15.20;99.90
10451;DHT22;5273;51.290;6.918;2023-10-19T09:19:02;15.20;99.90
10451;DHT22;5273;51.290;6.918;2023-10-19T09:21:31;15.10;99.90
10451;DHT22;5273;51.290;6.918;2023-10-19T09:23:58;15.40;99.90
10451;DHT22;5273;51.290;6.918;2023-10-19T09:26:25;15.80;99.90
10451;DHT22;5273;51.290;6.918;2023-10-19T09:28:53;15.20;99.90
10451;DHT22;5273;51.290;6.918;2023-10-19T09:31:20;15.20;99.90
10451;DHT22;5273;51.290;6.918;2023-10-19T09:33:50;15.30;99.90
10451;DHT22;5273;51.290;6.918;2023-10-19T09:36:18;15.50;99.90
10451;DHT22;5273;51.290;6.918;2023-10-19T09:38:50;15.80;99.90
10451;DHT22;5273;51.290;6.918;2023-10-19T09:41:18;16.20;99.90
10451;DHT22;5273;51.290;6.918;2023-10-19T09:43:47;17.00;99.90
10451;DHT22;5273;51.290;6.918;2023-10-19T09:46:21;17.70;99.90
10451;DHT22;5273;51.290;6.918;2023-10-19T09:48:49;18.70;99.90
10451;DHT22;5273;51.290;6.918;2023-10-19T09:51:18;18.60;99.90
10451;DHT22;5273;51.290;6.918;2023-10-19T09:53:51;18.20;99.90
10451;DHT22;5273;51.290;6.918;2023-10-19T09:56:23;18.00;99.90
10451;DHT22;5273;51.290;6.918;2023-10-19T09:58:54;18.30;99.90
10451;DHT22;5273;51.290;6.918;2023-10-19T10:01:22;19.00;99.90
10451;DHT22;5273;51.290;6.918;2023-10-19T10:03:49;19.80;99.90
10451;DHT22;5273;51.290;6.918;2023-10-19T10:06:17;20.50;99.90
10451;DHT22;5273;51.290;6.918;2023-10-19T10:08:54;21.20;99.90
10451;DHT22;5273;51.290;6.918;2023-10-19T10:11:23;21.50;99.90
10451;DHT22;5273;51.290;6.918;2023-10-19T10:13:52;21.60;99.90
10451;DHT22;5273;51.290;6.918;2023-10-19T10:16:22;21.90;99.90
10451;DHT22;5273;51.290;6.918;2023-10-19T10:18:50;22.00;99.90
10451;DHT22;5273;51.290;6.918;2023-10-19T10:21:19;21.80;99.90
10451;DHT22;5273;51.290;6.918;2023-10-19T10:23:48;21.30;99.90
10451;DHT22;5273;51.290;6.918;2023-10-19T10:26:18;21.00;99.90
10451;DHT22;5273;51.290;6.918;2023-10-19T10:28:50;20.70;99.90
10451;DHT22;5273;51.290;6.918;2023-10-19T10:31:35;20.70;99.90
10451;DHT22;5273;51.290;6.918;2023-10-19T10:34:08;21.00;99.90
10451;DHT22;5273;51.290;6.918;2023-10-19T10:36:57;20.90;99.90
10451;DHT22;5273;51.290;6.918;2023-10-19T10:39:25;20.90;99.90
10451;DHT22;5273;51.290;6.918;2023-10-19T10:41:57;20.70;99.90
10451;DHT22;5273;51.290;6.918;2023-10-19T10:44:36;20.70;99.90
10451;DHT22;5273;51.290;6.918;2023-10-19T10:47:04;20.50;99.90
10451;DHT22;5273;51.290;6.918;2023-10-19T10:49:32;20.40;99.90
10451;DHT22;5273;51.290;6.918;2023-10-19T10:51:58;20.30;99.90
10451;DHT22;5273;51.290;6.918;2023-10-19T10:54:25;20.30;99.90
10451;DHT22;5273;51.290;6.918;2023-10-19T10:56:52;20.20;99.90
10451;DHT22;5273;51.290;6.918;2023-10-19T10:59:21;20.20;99.90
10451;DHT22;5273;51.290;6.918;2023-10-19T11:01:47;19.60;99.90
10451;DHT22;5273;51.290;6.918;2023-10-19T11:04:14;19.40;99.90
10451;DHT22;5273;51.290;6.918;2023-10-19T11:06:49;19.30;99.90
10451;DHT22;5273;51.290;6.918;2023-10-19T11:09:16;19.20;99.90
10451;DHT22;5273;51.290;6.918;2023-10-19T11:11:45;19.00;99.90
10451;DHT22;5273;51.290;6.918;2023-10-19T11:14:12;18.80;99.90
10451;DHT22;5273;51.290;6.918;2023-10-19T11:16:40;18.70;99.90
10451;DHT22;5273;51.290;6.918;2023-10-19T11:19:08;18.60;99.90
10451;DHT22;5273;51.290;6.918;2023-10-19T11:21:36;18.40;99.90
10451;DHT22;5273;51.290;6.918;2023-10-19T11:24:03;18.50;99.90
10451;DHT22;5273;51.290;6.918;2023-10-19T11:26:30;18.60;99.90
10451;DHT22;5273;51.290;6.918;2023-10-19T11:28:57;18.50;99.90
10451;DHT22;5273;51.290;6.918;2023-10-19T11:31:24;18.50;99.90
10451;DHT22;5273;51.290;6.918;2023-10-19T11:33:54;18.60;99.90
10451;DHT22;5273;51.290;6.918;2023-10-19T11:36:22;18.60;99.90
10451;DHT22;5273;51.290;6.918;2023-10-19T11:38:51;18.60;99.90
10451;DHT22;5273;51.290;6.918;2023-10-19T11:41:18;18.70;99.90
10451;DHT22;5273;51.290;6.918;2023-10-19T11:43:47;18.60;99.90
10451;DHT22;5273;51.290;6.918;2023-10-19T11:46:14;18.60;99.90
10451;DHT22;5273;51.290;6.918;2023-10-19T11:48:43;18.60;99.90
10451;DHT22;5273;51.290;6.918;2023-10-19T11:51:11;18.50;99.90
10451;DHT22;5273;51.290;6.918;2023-10-19T11:53:39;18.50;99.90
10451;DHT22;5273;51.290;6.918;2023-10-19T11:56:07;18.50;99.90
10451;DHT22;5273;51.290;6.918;2023-10-19T11:58:35;18.40;99.90
10451;DHT22;5273;51.290;6.918;2023-10-19T12:01:03;18.40;99.90
10451;DHT22;5273;51.290;6.918;2023-10-19T12:03:34;18.40;99.90
10451;DHT22;5273;51.290;6.918;2023-10-19T12:06:03;18.50;99.90
10451;DHT22;5273;51.290;6.918;2023-10-19T12:08:33;18.40;99.90
10451;DHT22;5273;51.290;6.918;2023-10-19T12:11:01;18.30;99.90
10451;DHT22;5273;51.290;6.918;2023-10-19T12:13:29;18.40;99.90
10451;DHT22;5273;51.290;6.918;2023-10-19T12:15:56;18.40;99.90
10451;DHT22;5273;51.290;6.918;2023-10-19T12:18:23;18.40;99.90
10451;DHT22;5273;51.290;6.918;2023-10-19T12:20:51;18.40;99.90
10451;DHT22;5273;51.290;6.918;2023-10-19T12:23:22;18.30;99.90
10451;DHT22;5273;51.290;6.918;2023-10-19T12:25:51;18.60;99.90
10451;DHT22;5273;51.290;6.918;2023-10-19T12:28:18;18.40;99.90
10451;DHT22;5273;51.290;6.918;2023-10-19T12:30:45;18.20;99.90
10451;DHT22;5273;51.290;6.918;2023-10-19T12:33:12;18.30;99.90
10451;DHT22;5273;51.290;6.918;2023-10-19T12:35:40;18.30;99.90
10451;DHT22;5273;51.290;6.918;2023-10-19T12:38:13;18.20;99.90
10451;DHT22;5273;51.290;6.918;2023-10-19T12:40:44;18.20;99.90
10451;DHT22;5273;51.290;6.918;2023-10-19T12:43:13;18.20;99.90
10451;DHT22;5273;51.290;6.918;2023-10-19T12:45:41;18.20;99.90
10451;DHT22;5273;51.290;6.918;2023-10-19T12:48:09;18.20;99.90
10451;DHT22;5273;51.290;6.918;2023-10-19T12:50:37;17.90;99.90
10451;DHT22;5273;51.290;6.918;2023-10-19T12:53:04;18.10;99.90
10451;DHT22;5273;51.290;6.918;2023-10-19T12:55:32;18.00;99.90
10451;DHT22;5273;51.290;6.918;2023-10-19T12:58:00;18.00;99.90
10451;DHT22;5273;51.290;6.918;2023-10-19T13:00:34;17.90;99.90
10451;DHT22;5273;51.290;6.918;2023-10-19T13:03:07;17.90;99.90
10451;DHT22;5273;51.290;6.918;2023-10-19T13:05:35;17.80;99.90
10451;DHT22;5273;51.290;6.918;2023-10-19T13:08:03;17.80;99.90
10451;DHT22;5273;51.290;6.918;2023-10-19T13:10:33;17.80;99.90
10451;DHT22;5273;51.290;6.918;2023-10-19T13:13:00;17.70;99.90
10451;DHT22;5273;51.290;6.918;2023-10-19T13:15:29;17.70;99.90
10451;DHT22;5273;51.290;6.918;2023-10-19T13:17:58;17.60;99.90
10451;DHT22;5273;51.290;6.918;2023-10-19T13:20:25;17.60;99.90
10451;DHT22;5273;51.290;6.918;2023-10-19T13:22:53;17.60;99.90
10451;DHT22;5273;51.290;6.918;2023-10-19T13:25:21;17.60;99.90
10451;DHT22;5273;51.290;6.918;2023-10-19T13:28:05;17.50;99.90
10451;DHT22;5273;51.290;6.918;2023-10-19T13:30:36;17.40;99.90
10451;DHT22;5273;51.290;6.918;2023-10-19T13:33:05;17.50;99.90
10451;DHT22;5273;51.290;6.918;2023-10-19T13:35:35;17.40;99.90
10451;DHT22;5273;51.290;6.918;2023-10-19T13:38:02;17.30;99.90
10451;DHT22;5273;51.290;6.918;2023-10-19T13:40:29;17.30;99.90
10451;DHT22;5273;51.290;6.918;2023-10-19T13:42:56;17.30;99.90
10451;DHT22;5273;51.290;6.918;2023-10-19T13:45:24;17.20;99.90
10451;DHT22;5273;51.290;6.918;2023-10-19T13:47:50;17.30;99.90
10451;DHT22;5273;51.290;6.918;2023-10-19T13:50:22;17.10;99.90
10451;DHT22;5273;51.290;6.918;2023-10-19T13:52:50;17.00;99.90
10451;DHT22;5273;51.290;6.918;2023-10-19T13:55:17;17.00;99.90
10451;DHT22;5273;51.290;6.918;2023-10-19T13:57:46;17.00;99.90
10451;DHT22;5273;51.290;6.918;2023-10-19T14:00:13;17.00;99.90
10451;DHT22;5273;51.290;6.918;2023-10-19T14:02:45;17.00;99.90
10451;DHT22;5273;51.290;6.918;2023-10-19T14:05:12;17.00;99.90
10451;DHT22;5273;51.290;6.918;2023-10-19T14:07:40;16.90;99.90
10451;DHT22;5273;51.290;6.918;2023-10-19T14:10:09;16.80;99.90
10451;DHT22;5273;51.290;6.918;2023-10-19T14:12:38;16.80;99.90
10451;DHT22;5273;51.290;6.918;2023-10-19T14:15:13;16.80;99.90
10451;DHT22;5273;51.290;6.918;2023-10-19T14:17:40;16.70;99.90
10451;DHT22;5273;51.290;6.918;2023-10-19T14:20:08;16.70;99.90
10451;DHT22;5273;51.290;6.918;2023-10-19T14:22:40;16.70;99.90
10451;DHT22;5273;51.290;6.918;2023-10-19T14:25:07;16.60;99.90
10451;DHT22;5273;51.290;6.918;2023-10-19T14:27:38;16.60;99.90
10451;DHT22;5273;51.290;6.918;2023-10-19T14:30:06;16.70;99.90
10451;DHT22;5273;51.290;6.918;2023-10-19T14:32:35;16.60;99.90
10451;DHT22;5273;51.290;6.918;2023-10-19T14:35:02;16.60;99.90
10451;DHT22;5273;51.290;6.918;2023-10-19T14:37:31;16.60;99.90
10451;DHT22;5273;51.290;6.918;2023-10-19T14:39:59;16.70;99.90
10451;DHT22;5273;51.290;6.918;2023-10-19T14:42:26;16.70;99.90
10451;DHT22;5273;51.290;6.918;2023-10-19T14:44:56;16.70;99.90
10451;DHT22;5273;51.290;6.918;2023-10-19T14:47:23;16.70;99.90
10451;DHT22;5273;51.290;6.918;2023-10-19T14:49:50;16.70;99.90
10451;DHT22;5273;51.290;6.918;2023-10-19T14:52:17;16.70;99.90
10451;DHT22;5273;51.290;6.918;2023-10-19T14:54:47;16.60;99.90
10451;DHT22;5273;51.290;6.918;2023-10-19T14:57:15;16.60;99.90
10451;DHT22;5273;51.290;6.918;2023-10-19T14:59:42;16.50;99.90
10451;DHT22;5273;51.290;6.918;2023-10-19T15:02:09;16.50;99.90
10451;DHT22;5273;51.290;6.918;2023-10-19T15:04:37;16.50;99.90
10451;DHT22;5273;51.290;6.918;2023-10-19T15:07:04;16.70;99.90
10451;DHT22;5273;51.290;6.918;2023-10-19T15:09:31;16.40;99.90
10451;DHT22;5273;51.290;6.918;2023-10-19T15:11:58;16.40;99.90
10451;DHT22;5273;51.290;6.918;2023-10-19T15:14:26;16.40;99.90
10451;DHT22;5273;51.290;6.918;2023-10-19T15:16:53;16.30;99.90
10451;DHT22;5273;51.290;6.918;2023-10-19T15:19:20;16.30;99.90
10451;DHT22;5273;51.290;6.918;2023-10-19T15:21:48;16.30;99.90
10451;DHT22;5273;51.290;6.918;2023-10-19T15:24:14;16.30;99.90
10451;DHT22;5273;51.290;6.918;2023-10-19T15:26:41;16.30;99.90
10451;DHT22;5273;51.290;6.918;2023-10-19T15:29:08;16.30;99.90
10451;DHT22;5273;51.290;6.918;2023-10-19T15:31:37;16.30;99.90
10451;DHT22;5273;51.290;6.918;2023-10-19T15:34:04;16.40;99.90
10451;DHT22;5273;51.290;6.918;2023-10-19T15:36:31;16.40;99.90
10451;DHT22;5273;51.290;6.918;2023-10-19T15:38:58;16.30;99.90
10451;DHT22;5273;51.290;6.918;2023-10-19T15:41:25;16.70;99.90
10451;DHT22;5273;51.290;6.918;2023-10-19T15:43:52;16.40;99.90
10451;DHT22;5273;51.290;6.918;2023-10-19T15:46:18;16.30;99.90
10451;DHT22;5273;51.290;6.918;2023-10-19T15:48:50;16.30;99.90
10451;DHT22;5273;51.290;6.918;2023-10-19T15:51:17;16.30;99.90
10451;DHT22;5273;51.290;6.918;2023-10-19T15:53:43;16.30;99.90
10451;DHT22;5273;51.290;6.918;2023-10-19T15:56:10;16.30;99.90